createdAt,value
2023-03-27T00:00:10.240Z,17.40
2023-03-27T00:02:38.805Z,18.10
2023-03-27T00:05:05.576Z,18.00
2023-03-27T00:07:36.345Z,16.60
2023-03-27T00:10:02.608Z,17.70
2023-03-27T00:12:29.092Z,16.60
2023-03-27T00:14:55.636Z,18.10
2023-03-27T00:17:21.992Z,16.40
2023-03-27T00:19:53.010Z,17.20
2023-03-27T00:22:20.927Z,18.00
2023-03-27T00:24:48.026Z,15.60
2023-03-27T00:27:21.191Z,17.30
2023-03-27T00:29:49.953Z,16.50
2023-03-27T00:32:16.283Z,17.80
2023-03-27T00:34:42.617Z,16.30
2023-03-27T00:37:10.180Z,18.40
2023-03-27T00:39:37.086Z,16.60
2023-03-27T00:42:03.686Z,16.40
2023-03-27T00:44:33.875Z,17.50
2023-03-27T00:47:02.518Z,16.50
2023-03-27T00:49:31.692Z,15.80
2023-03-27T00:51:58.512Z,16.70
2023-03-27T00:54:29.323Z,17.80
2023-03-27T00:56:57.625Z,16.40
2023-03-27T00:59:26.704Z,16.20
2023-03-27T01:01:53.300Z,16.10
2023-03-27T01:04:20.880Z,15.30
2023-03-27T01:06:49.388Z,16.30
2023-03-27T01:09:20.841Z,15.50
2023-03-27T01:11:54.180Z,18.80
2023-03-27T01:14:42.677Z,16.90
2023-03-27T01:17:28.110Z,16.10
2023-03-27T01:20:25.438Z,17.60
2023-03-27T01:23:07.803Z,16.40
2023-03-27T01:25:41.401Z,17.60
2023-03-27T01:28:29.371Z,16.60
2023-03-27T01:31:04.474Z,15.70
2023-03-27T01:33:52.705Z,14.80
2023-03-27T01:36:25.431Z,18.50
2023-03-27T01:39:04.771Z,17.20
2023-03-27T01:41:42.228Z,18.60
2023-03-27T01:44:12.464Z,20.10
2023-03-27T01:47:01.908Z,19.80
2023-03-27T01:49:29.802Z,19.30
2023-03-27T01:51:59.217Z,17.20
2023-03-27T01:54:28.399Z,18.90
2023-03-27T01:57:01.593Z,18.60
2023-03-27T01:59:33.116Z,22.00
2023-03-27T02:02:21.551Z,20.30
2023-03-27T02:05:01.045Z,22.80
2023-03-27T02:10:03.418Z,19.90
2023-03-27T02:12:33.803Z,22.60
2023-03-27T02:21:59.775Z,23.40
2023-03-27T02:24:27.044Z,23.60
2023-03-27T02:27:00.029Z,23.70
2023-03-27T02:37:33.773Z,25.40
2023-03-27T02:40:42.150Z,23.40
2023-03-27T02:43:28.051Z,24.30
2023-03-27T02:46:20.725Z,24.80
2023-03-27T02:48:59.054Z,22.50
2023-03-27T02:51:48.000Z,27.30
2023-03-27T02:54:33.887Z,26.80
2023-03-27T02:57:04.728Z,26.70
2023-03-27T02:59:48.693Z,23.50
2023-03-27T03:02:19.912Z,22.80
2023-03-27T03:05:07.444Z,22.50
2023-03-27T03:07:39.712Z,23.50
2023-03-27T03:10:09.588Z,25.50
2023-03-27T03:12:37.387Z,25.10
2023-03-27T03:15:07.383Z,22.80
2023-03-27T03:17:34.327Z,25.00
2023-03-27T03:20:08.700Z,25.80
2023-03-27T03:22:36.042Z,27.30
2023-03-27T03:25:03.466Z,23.20
2023-03-27T03:27:30.650Z,22.40
2023-03-27T03:30:06.984Z,22.10
2023-03-27T03:32:39.821Z,21.60
2023-03-27T03:35:09.377Z,20.50
2023-03-27T03:37:38.965Z,19.60
2023-03-27T03:40:11.365Z,20.50
2023-03-27T03:42:46.438Z,18.80
2023-03-27T03:45:12.980Z,19.40
2023-03-27T03:47:40.067Z,16.80
2023-03-27T03:50:08.870Z,16.80
2023-03-27T03:52:37.474Z,17.00
2023-03-27T03:55:05.520Z,17.80
2023-03-27T03:57:33.632Z,16.30
2023-03-27T04:00:08.133Z,16.50
2023-03-27T04:02:44.056Z,16.80
2023-03-27T04:05:12.962Z,15.40
2023-03-27T04:07:40.614Z,15.10
2023-03-27T04:10:32.065Z,16.30
2023-03-27T04:13:00.620Z,15.40
2023-03-27T04:15:30.438Z,15.70
2023-03-27T04:17:59.855Z,16.90
2023-03-27T04:20:26.594Z,18.40
2023-03-27T04:22:54.397Z,17.60
2023-03-27T04:25:22.956Z,20.00
2023-03-27T04:27:53.144Z,16.30
2023-03-27T04:30:33.309Z,18.30
2023-03-27T04:33:19.064Z,19.00
2023-03-27T04:36:09.548Z,19.10
2023-03-27T04:38:45.233Z,19.70
2023-03-27T04:41:14.846Z,19.50
2023-03-27T04:43:42.719Z,20.40
2023-03-27T04:46:09.631Z,21.90
2023-03-27T04:48:39.247Z,20.40
2023-03-27T04:51:31.942Z,21.80
2023-03-27T04:54:06.823Z,21.00
2023-03-27T04:56:40.314Z,20.30
2023-03-27T04:59:07.229Z,20.70
2023-03-27T05:01:35.648Z,20.20
2023-03-27T05:04:21.155Z,21.80
2023-03-27T05:07:11.753Z,20.60
2023-03-27T05:09:39.112Z,20.60
2023-03-27T05:12:06.939Z,19.00
2023-03-27T05:14:39.082Z,21.60
2023-03-27T05:17:06.856Z,19.90
2023-03-27T05:19:39.682Z,21.00
2023-03-27T05:22:07.241Z,20.90
2023-03-27T05:24:37.352Z,20.70
2023-03-27T05:27:08.520Z,20.80
2023-03-27T05:29:47.391Z,20.00
2023-03-27T05:32:15.014Z,23.70
2023-03-27T05:35:05.596Z,21.70
2023-03-27T05:37:38.054Z,22.20
2023-03-27T05:40:15.614Z,18.70
2023-03-27T05:42:46.296Z,16.90
2023-03-27T05:45:13.326Z,15.30
2023-03-27T05:47:55.699Z,13.30
2023-03-27T05:50:25.040Z,14.20
2023-03-27T05:53:01.584Z,14.30
2023-03-27T05:55:35.414Z,11.20
2023-03-27T05:58:06.148Z,12.80
2023-03-27T06:00:33.915Z,13.70
2023-03-27T06:03:02.037Z,13.60
2023-03-27T06:06:00.682Z,13.60
2023-03-27T06:08:30.787Z,12.80
2023-03-27T06:10:58.145Z,12.40
2023-03-27T06:13:37.687Z,10.60
2023-03-27T06:16:08.390Z,11.10
2023-03-27T06:18:41.014Z,11.90
2023-03-27T06:21:08.457Z,11.40
2023-03-27T06:23:35.421Z,10.90
2023-03-27T06:26:08.399Z,11.50
2023-03-27T06:28:35.059Z,10.40
2023-03-27T06:31:02.000Z,12.20
2023-03-27T06:33:48.359Z,10.90
2023-03-27T06:36:32.126Z,12.60
2023-03-27T06:39:02.430Z,12.90
2023-03-27T06:41:29.619Z,12.80
2023-03-27T06:44:05.582Z,13.50
2023-03-27T06:46:51.649Z,13.20
2023-03-27T06:49:39.089Z,10.80
2023-03-27T06:52:11.589Z,11.00
2023-03-27T06:54:38.965Z,11.90
2023-03-27T14:28:57.526Z,2.90
2023-03-27T14:32:14.062Z,3.70
2023-03-27T14:34:54.275Z,4.40
2023-03-27T14:37:47.858Z,3.10
2023-03-27T14:40:30.556Z,4.70
2023-03-27T14:42:59.896Z,4.30
2023-03-27T14:45:33.294Z,3.40
2023-03-27T14:48:08.343Z,2.90
2023-03-27T14:50:55.122Z,3.30
2023-03-27T14:53:27.003Z,4.30
2023-03-27T14:56:22.128Z,4.10
2023-03-27T14:59:00.977Z,5.20
2023-03-27T15:01:35.614Z,3.90
2023-03-27T15:04:05.784Z,6.70
2023-03-27T15:06:36.788Z,5.10
2023-03-27T15:09:05.711Z,4.60
2023-03-27T15:11:56.521Z,3.80
2023-03-27T15:14:36.820Z,3.70
2023-03-27T15:17:06.936Z,3.40
2023-03-27T15:20:10.432Z,3.00
2023-03-27T15:22:40.612Z,4.20
2023-03-27T15:25:19.641Z,5.20
2023-03-27T15:27:53.081Z,4.70
2023-03-27T15:30:37.566Z,3.70
2023-03-27T15:33:05.897Z,3.70
2023-03-27T15:35:40.386Z,5.60
2023-03-27T15:38:08.202Z,5.10
2023-03-27T15:40:41.777Z,5.80
2023-03-27T15:43:12.693Z,7.10
2023-03-27T15:46:04.581Z,5.60
2023-03-27T15:48:38.019Z,6.40
2023-03-27T15:51:05.772Z,5.80
2023-03-27T15:53:36.772Z,6.80
2023-03-27T15:56:15.004Z,4.80
2023-03-27T15:58:51.754Z,6.20
2023-03-27T16:01:23.935Z,7.20
2023-03-27T16:03:52.213Z,7.50
2023-03-27T16:06:28.275Z,5.40
2023-03-27T16:08:55.391Z,5.90
2023-03-27T16:11:54.297Z,7.20
2023-03-27T16:14:29.590Z,6.70
2023-03-27T16:17:13.547Z,6.20
2023-03-27T16:19:49.953Z,5.40
2023-03-27T16:22:24.657Z,6.40
2023-03-27T16:24:51.959Z,8.60
2023-03-27T16:27:24.432Z,7.40
2023-03-27T16:29:51.785Z,6.20
2023-03-27T16:32:22.298Z,6.80
2023-03-27T16:34:51.580Z,6.90
2023-03-27T16:37:23.151Z,6.30
2023-03-27T16:39:50.752Z,7.00
2023-03-27T16:42:19.150Z,7.90
2023-03-27T16:44:46.686Z,11.30
2023-03-27T16:47:14.066Z,8.50
2023-03-27T16:49:41.214Z,9.80
2023-03-27T16:52:08.326Z,10.30
2023-03-27T16:54:35.501Z,15.40
2023-03-27T16:57:02.834Z,11.00
2023-03-27T16:59:30.497Z,13.50
2023-03-27T17:01:58.628Z,15.50
2023-03-27T17:04:27.738Z,15.50
2023-03-27T17:06:55.124Z,13.40
2023-03-27T17:09:22.781Z,13.20
2023-03-27T17:11:49.811Z,15.80
2023-03-27T17:14:18.092Z,15.90
2023-03-27T17:16:45.348Z,13.90
2023-03-27T17:19:13.037Z,12.40
2023-03-27T17:21:41.113Z,11.60
2023-03-27T17:24:09.292Z,11.60
2023-03-27T17:26:38.235Z,10.70
2023-03-27T17:29:13.928Z,10.70
2023-03-27T17:31:41.577Z,11.30
2023-03-27T17:34:08.711Z,11.70
2023-03-27T17:36:44.913Z,13.70
2023-03-27T17:39:14.687Z,16.20
2023-03-27T17:41:41.724Z,16.70
2023-03-27T17:44:11.129Z,17.50
2023-03-27T17:49:08.188Z,23.60
2023-03-27T17:51:35.886Z,22.00
2023-03-27T17:54:05.957Z,21.40
2023-03-27T17:56:33.053Z,22.30
2023-03-27T17:59:01.126Z,21.90
2023-03-27T18:01:32.747Z,20.30
2023-03-27T18:04:00.673Z,21.50
2023-03-27T18:06:27.899Z,23.70
2023-03-27T18:08:54.841Z,19.00
2023-03-27T18:11:21.942Z,17.70
2023-03-27T18:13:53.031Z,18.10
2023-03-27T18:16:21.867Z,17.00
2023-03-27T18:18:52.168Z,17.90
2023-03-27T18:21:19.644Z,20.70
2023-03-27T18:23:47.060Z,16.00
2023-03-27T18:26:14.332Z,19.20
2023-03-27T18:28:41.294Z,16.40
2023-03-27T18:31:10.092Z,15.70
2023-03-27T18:33:37.324Z,17.80
2023-03-27T18:36:10.800Z,20.10
2023-03-27T18:38:41.965Z,24.10
2023-03-27T18:41:11.225Z,32.60
2023-03-27T18:43:48.079Z,29.80
2023-03-27T18:46:17.301Z,25.90
2023-03-27T18:48:45.512Z,21.60
2023-03-27T18:51:14.111Z,19.70
2023-03-27T18:53:41.909Z,16.70
2023-03-27T18:56:13.724Z,16.80
2023-03-27T18:58:42.906Z,15.90
2023-03-27T19:01:10.172Z,16.90
2023-03-27T19:03:39.241Z,15.10
2023-03-27T19:06:07.461Z,15.00
2023-03-27T19:08:37.465Z,14.80
2023-03-27T19:11:12.597Z,13.10
2023-03-27T19:13:58.013Z,14.40
2023-03-27T19:16:30.784Z,13.60
2023-03-27T19:19:16.446Z,13.80
2023-03-27T19:21:52.542Z,12.50
2023-03-27T19:24:40.519Z,15.20
2023-03-27T19:27:07.827Z,15.20
2023-03-27T19:29:52.049Z,15.40
2023-03-27T19:32:19.330Z,21.50
2023-03-27T19:34:46.357Z,20.50
2023-03-27T19:37:13.783Z,13.50
2023-03-27T19:39:40.983Z,16.30
2023-03-27T19:42:08.169Z,14.20
2023-03-27T19:44:38.232Z,12.20
2023-03-27T19:47:06.120Z,15.60
2023-03-27T19:49:34.899Z,23.80
2023-03-27T19:52:20.718Z,20.20
2023-03-27T19:54:56.592Z,16.80
2023-03-27T19:57:24.907Z,13.50
2023-03-27T19:59:52.092Z,23.10
2023-03-27T20:02:19.449Z,20.30
2023-03-27T20:04:48.843Z,22.30
2023-03-27T20:07:16.298Z,21.60
2023-03-27T20:09:44.403Z,21.80
2023-03-27T20:12:12.501Z,22.80
2023-03-27T20:14:51.354Z,21.50
2023-03-27T20:17:29.618Z,24.50
2023-03-27T20:19:57.207Z,25.30
2023-03-27T20:22:29.812Z,26.70
2023-03-27T20:24:57.572Z,24.90
2023-03-27T20:27:24.861Z,19.50
2023-03-27T20:29:52.337Z,21.40
2023-03-27T20:32:19.896Z,22.80
2023-03-27T20:34:49.075Z,20.90
2023-03-27T20:37:16.667Z,23.40
2023-03-27T20:39:54.227Z,23.60
2023-03-27T20:42:23.251Z,24.60
2023-03-27T20:44:58.517Z,24.80
2023-03-27T20:47:26.017Z,26.00
2023-03-27T20:49:53.103Z,25.50
2023-03-27T20:52:20.092Z,25.70
2023-03-27T20:54:47.960Z,31.40
2023-03-27T20:57:16.921Z,30.10
2023-03-27T20:59:47.476Z,29.20
2023-03-27T21:02:21.233Z,26.40
2023-03-27T21:04:48.767Z,28.00
2023-03-27T21:07:16.185Z,16.50
2023-03-27T21:09:45.421Z,28.20
2023-03-27T21:12:12.636Z,26.50
2023-03-27T21:14:40.089Z,25.80
2023-03-27T21:17:08.641Z,29.90
2023-03-27T21:19:36.335Z,30.20
2023-03-27T21:22:03.387Z,27.20
2023-03-27T21:24:31.181Z,21.30
2023-03-27T21:27:00.089Z,21.00
2023-03-27T21:29:27.774Z,18.30
2023-03-27T21:31:55.167Z,16.40
2023-03-27T21:34:22.666Z,17.50
2023-03-27T21:36:52.032Z,16.70
2023-03-27T21:39:19.386Z,17.20
2023-03-27T21:41:49.084Z,17.50
2023-03-27T21:44:16.461Z,15.30
2023-03-27T21:46:43.645Z,16.60
2023-03-27T21:49:10.993Z,16.60
2023-03-27T21:51:39.074Z,17.30
2023-03-27T21:54:11.647Z,15.60
2023-03-27T21:56:39.477Z,14.10
2023-03-27T21:59:06.654Z,18.20
2023-03-27T22:01:35.644Z,15.70
2023-03-27T22:04:03.124Z,16.10
2023-03-27T22:06:30.829Z,15.50
2023-03-27T22:08:58.032Z,16.30
2023-03-27T22:11:25.367Z,15.30
2023-03-27T22:13:52.387Z,14.80
2023-03-27T22:16:20.573Z,13.80
2023-03-27T22:18:48.669Z,16.90
2023-03-27T22:21:22.978Z,14.10
2023-03-27T22:23:52.074Z,15.20
2023-03-27T22:26:19.952Z,14.60
2023-03-27T22:28:49.937Z,17.60
2023-03-27T22:31:17.521Z,18.60
2023-03-27T22:33:44.664Z,20.30
2023-03-27T22:36:11.971Z,20.90
2023-03-27T22:38:41.682Z,20.90
2023-03-27T22:41:10.899Z,20.30
2023-03-27T22:43:38.220Z,19.10
2023-03-27T22:46:15.967Z,18.40
2023-03-27T22:48:43.527Z,16.10
2023-03-27T22:51:11.222Z,16.70
2023-03-27T22:53:44.937Z,15.80
2023-03-27T22:56:12.592Z,18.30
2023-03-27T22:58:39.660Z,14.70
2023-03-27T23:01:07.603Z,14.90
2023-03-27T23:03:34.668Z,14.40
2023-03-27T23:06:02.015Z,14.40
2023-03-27T23:08:32.301Z,13.60
2023-03-27T23:11:01.230Z,15.30
2023-03-27T23:13:34.339Z,14.80
2023-03-27T23:16:03.205Z,15.90
2023-03-27T23:18:30.307Z,14.40
2023-03-27T23:21:09.546Z,14.00
2023-03-27T23:23:37.325Z,17.20
2023-03-27T23:26:05.074Z,12.90
2023-03-27T23:28:34.305Z,13.00
2023-03-27T23:31:03.044Z,13.60
2023-03-27T23:33:39.726Z,13.40
2023-03-27T23:36:13.508Z,12.40
2023-03-27T23:41:10.610Z,13.20
2023-03-27T23:43:37.621Z,12.80
2023-03-27T23:46:11.340Z,14.60
2023-03-27T23:48:39.433Z,14.70
2023-03-27T23:51:06.796Z,14.00
2023-03-27T23:53:36.427Z,15.40
2023-03-27T23:56:04.017Z,11.50
2023-03-27T23:58:32.908Z,12.60
